sensor_id;sensor_type;location;lat;lon;timestamp;P1;durP1;ratioP1;P2;durP2;ratioP2
56631;SDS011;42503;39.928;-75.152;2023-01-13T00:09:36;233.73;;;37.38;;
56631;SDS011;42503;39.928;-75.152;2023-01-13T00:19:44;228.43;;;36.42;;
56631;SDS011;42503;39.928;-75.152;2023-01-13T00:29:49;185.60;;;33.22;;
56631;SDS011;42503;39.928;-75.152;2023-01-13T00:39:56;165.40;;;30.05;;
56631;SDS011;42503;39.928;-75.152;2023-01-13T00:50:03;152.05;;;29.35;;
56631;SDS011;42503;39.928;-75.152;2023-01-13T01:00:04;131.13;;;28.17;;
56631;SDS011;42503;39.928;-75.152;2023-01-13T01:10:06;121.97;;;26.52;;
56631;SDS011;42503;39.928;-75.152;2023-01-13T01:20:13;120.32;;;25.42;;
56631;SDS011;42503;39.928;-75.152;2023-01-13T01:30:18;93.90;;;24.15;;
56631;SDS011;42503;39.928;-75.152;2023-01-13T01:40:19;89.75;;;22.23;;
56631;SDS011;42503;39.928;-75.152;2023-01-13T01:50:23;92.15;;;22.30;;
56631;SDS011;42503;39.928;-75.152;2023-01-13T02:00:26;97.97;;;20.98;;
56631;SDS011;42503;39.928;-75.152;2023-01-13T02:10:28;64.78;;;18.48;;
56631;SDS011;42503;39.928;-75.152;2023-01-13T02:30:58;74.82;;;19.40;;
56631;SDS011;42503;39.928;-75.152;2023-01-13T02:51:58;54.30;;;14.85;;
56631;SDS011;42503;39.928;-75.152;2023-01-13T03:02:05;54.15;;;16.13;;
56631;SDS011;42503;39.928;-75.152;2023-01-13T03:12:56;53.45;;;15.43;;
56631;SDS011;42503;39.928;-75.152;2023-01-13T03:23:06;47.33;;;15.02;;
56631;SDS011;42503;39.928;-75.152;2023-01-13T03:33:20;37.33;;;13.35;;
56631;SDS011;42503;39.928;-75.152;2023-01-13T03:43:29;43.33;;;13.88;;
56631;SDS011;42503;39.928;-75.152;2023-01-13T03:53:56;39.13;;;12.93;;
56631;SDS011;42503;39.928;-75.152;2023-01-13T04:04:05;40.35;;;13.10;;
56631;SDS011;42503;39.928;-75.152;2023-01-13T04:14:09;44.70;;;12.63;;
56631;SDS011;42503;39.928;-75.152;2023-01-13T04:24:12;37.33;;;11.50;;
56631;SDS011;42503;39.928;-75.152;2023-01-13T04:34:13;33.60;;;12.38;;
56631;SDS011;42503;39.928;-75.152;2023-01-13T04:44:15;33.45;;;11.02;;
56631;SDS011;42503;39.928;-75.152;2023-01-13T04:54:16;31.27;;;11.35;;
56631;SDS011;42503;39.928;-75.152;2023-01-13T05:04:17;28.25;;;9.85;;
56631;SDS011;42503;39.928;-75.152;2023-01-13T05:14:21;24.52;;;9.32;;
56631;SDS011;42503;39.928;-75.152;2023-01-13T05:35:07;26.15;;;9.52;;
56631;SDS011;42503;39.928;-75.152;2023-01-13T05:45:09;25.10;;;8.65;;
56631;SDS011;42503;39.928;-75.152;2023-01-13T05:55:11;25.08;;;9.18;;
56631;SDS011;42503;39.928;-75.152;2023-01-13T06:05:15;25.10;;;8.88;;
56631;SDS011;42503;39.928;-75.152;2023-01-13T06:15:17;24.00;;;8.48;;
56631;SDS011;42503;39.928;-75.152;2023-01-13T06:25:27;19.13;;;8.43;;
56631;SDS011;42503;39.928;-75.152;2023-01-13T06:35:36;19.60;;;7.78;;
56631;SDS011;42503;39.928;-75.152;2023-01-13T06:45:42;18.27;;;7.75;;
56631;SDS011;42503;39.928;-75.152;2023-01-13T06:55:52;16.67;;;7.50;;
56631;SDS011;42503;39.928;-75.152;2023-01-13T07:05:54;16.52;;;7.88;;
56631;SDS011;42503;39.928;-75.152;2023-01-13T07:15:59;16.52;;;7.22;;
56631;SDS011;42503;39.928;-75.152;2023-01-13T07:26:03;16.48;;;7.32;;
56631;SDS011;42503;39.928;-75.152;2023-01-13T07:36:04;19.17;;;7.03;;
56631;SDS011;42503;39.928;-75.152;2023-01-13T07:46:06;17.17;;;6.88;;
56631;SDS011;42503;39.928;-75.152;2023-01-13T07:56:08;14.85;;;6.78;;
56631;SDS011;42503;39.928;-75.152;2023-01-13T08:06:10;14.43;;;6.72;;
56631;SDS011;42503;39.928;-75.152;2023-01-13T08:16:17;12.68;;;6.38;;
56631;SDS011;42503;39.928;-75.152;2023-01-13T08:26:18;12.52;;;6.10;;
56631;SDS011;42503;39.928;-75.152;2023-01-13T08:36:19;12.73;;;6.03;;
56631;SDS011;42503;39.928;-75.152;2023-01-13T08:46:21;12.32;;;5.60;;
56631;SDS011;42503;39.928;-75.152;2023-01-13T08:56:25;10.63;;;5.55;;
56631;SDS011;42503;39.928;-75.152;2023-01-13T09:06:26;10.90;;;5.68;;
56631;SDS011;42503;39.928;-75.152;2023-01-13T09:16:27;9.50;;;4.80;;
56631;SDS011;42503;39.928;-75.152;2023-01-13T09:26:32;10.45;;;6.00;;
56631;SDS011;42503;39.928;-75.152;2023-01-13T09:36:34;11.50;;;5.20;;
56631;SDS011;42503;39.928;-75.152;2023-01-13T09:46:36;10.35;;;4.90;;
56631;SDS011;42503;39.928;-75.152;2023-01-13T09:56:44;9.97;;;4.63;;
56631;SDS011;42503;39.928;-75.152;2023-01-13T10:06:51;7.65;;;4.30;;
56631;SDS011;42503;39.928;-75.152;2023-01-13T10:27:34;8.00;;;4.30;;
56631;SDS011;42503;39.928;-75.152;2023-01-13T10:37:36;8.55;;;4.45;;
56631;SDS011;42503;39.928;-75.152;2023-01-13T10:47:38;6.90;;;4.50;;
56631;SDS011;42503;39.928;-75.152;2023-01-13T10:57:40;9.73;;;4.40;;
56631;SDS011;42503;39.928;-75.152;2023-01-13T11:07:48;6.32;;;4.05;;
56631;SDS011;42503;39.928;-75.152;2023-01-13T11:28:03;7.80;;;4.00;;
56631;SDS011;42503;39.928;-75.152;2023-01-13T11:38:25;5.10;;;3.10;;
56631;SDS011;42503;39.928;-75.152;2023-01-13T11:48:29;8.23;;;3.83;;
56631;SDS011;42503;39.928;-75.152;2023-01-13T11:58:47;6.63;;;3.72;;
56631;SDS011;42503;39.928;-75.152;2023-01-13T12:09:25;5.88;;;3.33;;
56631;SDS011;42503;39.928;-75.152;2023-01-13T12:19:33;5.78;;;3.95;;
56631;SDS011;42503;39.928;-75.152;2023-01-13T12:29:36;5.45;;;3.03;;
56631;SDS011;42503;39.928;-75.152;2023-01-13T12:50:17;4.95;;;2.50;;
56631;SDS011;42503;39.928;-75.152;2023-01-13T13:00:30;3.80;;;2.70;;
56631;SDS011;42503;39.928;-75.152;2023-01-13T13:42:46;4.55;;;3.00;;
56631;SDS011;42503;39.928;-75.152;2023-01-13T13:53:21;4.13;;;2.70;;
56631;SDS011;42503;39.928;-75.152;2023-01-13T14:03:30;4.40;;;2.50;;
56631;SDS011;42503;39.928;-75.152;2023-01-13T14:13:34;4.38;;;2.60;;
56631;SDS011;42503;39.928;-75.152;2023-01-13T14:23:38;3.90;;;2.30;;
56631;SDS011;42503;39.928;-75.152;2023-01-13T14:33:43;3.85;;;2.50;;
56631;SDS011;42503;39.928;-75.152;2023-01-13T14:43:50;3.40;;;2.60;;
56631;SDS011;42503;39.928;-75.152;2023-01-13T14:53:57;4.15;;;2.30;;
56631;SDS011;42503;39.928;-75.152;2023-01-13T15:04:15;3.78;;;2.33;;
56631;SDS011;42503;39.928;-75.152;2023-01-13T15:14:28;3.10;;;2.33;;
56631;SDS011;42503;39.928;-75.152;2023-01-13T15:34:36;4.38;;;2.65;;
56631;SDS011;42503;39.928;-75.152;2023-01-13T15:44:38;3.63;;;2.55;;
56631;SDS011;42503;39.928;-75.152;2023-01-13T15:54:57;3.42;;;2.70;;
56631;SDS011;42503;39.928;-75.152;2023-01-13T16:05:01;2.90;;;2.22;;
56631;SDS011;42503;39.928;-75.152;2023-01-13T16:15:06;3.60;;;2.55;;
56631;SDS011;42503;39.928;-75.152;2023-01-13T16:25:13;4.25;;;2.63;;
56631;SDS011;42503;39.928;-75.152;2023-01-13T16:35:20;8.40;;;3.30;;
56631;SDS011;42503;39.928;-75.152;2023-01-13T16:45:23;48.08;;;4.82;;
56631;SDS011;42503;39.928;-75.152;2023-01-13T16:55:24;24.10;;;4.25;;
56631;SDS011;42503;39.928;-75.152;2023-01-13T17:05:27;19.70;;;3.55;;
56631;SDS011;42503;39.928;-75.152;2023-01-13T17:15:28;20.52;;;3.50;;
56631;SDS011;42503;39.928;-75.152;2023-01-13T17:25:32;12.98;;;3.30;;
56631;SDS011;42503;39.928;-75.152;2023-01-13T17:35:35;12.07;;;2.72;;
56631;SDS011;42503;39.928;-75.152;2023-01-13T17:45:39;12.68;;;2.95;;
56631;SDS011;42503;39.928;-75.152;2023-01-13T17:55:47;9.93;;;3.03;;
56631;SDS011;42503;39.928;-75.152;2023-01-13T18:05:52;13.85;;;3.03;;
56631;SDS011;42503;39.928;-75.152;2023-01-13T18:16:00;21.70;;;3.60;;
56631;SDS011;42503;39.928;-75.152;2023-01-13T18:26:15;22.27;;;3.88;;
56631;SDS011;42503;39.928;-75.152;2023-01-13T18:36:36;41.57;;;5.00;;
56631;SDS011;42503;39.928;-75.152;2023-01-13T18:46:37;41.70;;;5.38;;
56631;SDS011;42503;39.928;-75.152;2023-01-13T18:56:39;50.60;;;5.95;;
56631;SDS011;42503;39.928;-75.152;2023-01-13T19:06:43;48.65;;;6.35;;
56631;SDS011;42503;39.928;-75.152;2023-01-13T19:16:50;53.28;;;4.85;;
56631;SDS011;42503;39.928;-75.152;2023-01-13T19:26:52;35.08;;;4.85;;
56631;SDS011;42503;39.928;-75.152;2023-01-13T19:36:57;51.15;;;5.30;;
56631;SDS011;42503;39.928;-75.152;2023-01-13T19:47:03;71.25;;;6.88;;
56631;SDS011;42503;39.928;-75.152;2023-01-13T19:57:06;107.40;;;9.57;;
56631;SDS011;42503;39.928;-75.152;2023-01-13T20:07:07;133.82;;;12.45;;
56631;SDS011;42503;39.928;-75.152;2023-01-13T20:17:10;144.18;;;13.75;;
56631;SDS011;42503;39.928;-75.152;2023-01-13T20:27:12;194.85;;;20.55;;
56631;SDS011;42503;39.928;-75.152;2023-01-13T20:37:14;239.20;;;24.60;;
56631;SDS011;42503;39.928;-75.152;2023-01-13T20:47:15;210.27;;;23.33;;
56631;SDS011;42503;39.928;-75.152;2023-01-13T20:57:17;165.88;;;20.35;;
56631;SDS011;42503;39.928;-75.152;2023-01-13T21:07:18;137.55;;;17.58;;
56631;SDS011;42503;39.928;-75.152;2023-01-13T21:17:20;127.32;;;17.27;;
56631;SDS011;42503;39.928;-75.152;2023-01-13T21:28:00;126.80;;;15.47;;
56631;SDS011;42503;39.928;-75.152;2023-01-13T21:38:05;114.75;;;15.23;;
56631;SDS011;42503;39.928;-75.152;2023-01-13T21:48:06;101.82;;;12.70;;
56631;SDS011;42503;39.928;-75.152;2023-01-13T21:58:09;84.00;;;11.88;;
56631;SDS011;42503;39.928;-75.152;2023-01-13T22:08:12;70.65;;;10.23;;
56631;SDS011;42503;39.928;-75.152;2023-01-13T22:18:13;94.35;;;12.70;;
56631;SDS011;42503;39.928;-75.152;2023-01-13T22:28:17;79.30;;;10.90;;
56631;SDS011;42503;39.928;-75.152;2023-01-13T22:38:24;73.03;;;10.05;;
56631;SDS011;42503;39.928;-75.152;2023-01-13T22:48:33;65.70;;;9.27;;
56631;SDS011;42503;39.928;-75.152;2023-01-13T22:58:34;58.42;;;8.02;;
56631;SDS011;42503;39.928;-75.152;2023-01-13T23:08:38;67.88;;;8.73;;
56631;SDS011;42503;39.928;-75.152;2023-01-13T23:18:40;59.05;;;8.75;;
56631;SDS011;42503;39.928;-75.152;2023-01-13T23:28:50;46.28;;;7.35;;
56631;SDS011;42503;39.928;-75.152;2023-01-13T23:38:54;50.75;;;7.30;;
56631;SDS011;42503;39.928;-75.152;2023-01-13T23:48:58;44.88;;;6.18;;
56631;SDS011;42503;39.928;-75.152;2023-01-13T23:59:00;42.88;;;6.40;;
